This is the latest recevied weather packets stored in our database for station/object F4AMY-13. If no packets are shown the sender has not sent any weather packets the latest 10 day(s).
| Time | Temp. | Humidity | Pressure | Rain* | Wind** | Luminosity | Snow |
|---|---|---|---|---|---|---|---|
| 1777892226 | 17.78° C | 78% | 1012.4 hPa | 0 mm | 54.09 m/s, ° | 121 W/m² | - |
| 1777891926 | 17.78° C | 79% | 1012.6 hPa | 0 mm | 52.75 m/s, ° | 118 W/m² | - |
| 1777891626 | 17.78° C | 79% | 1012.5 hPa | 0 mm | 50.52 m/s, ° | 113 W/m² | - |
| 1777891326 | 17.22° C | 81% | 1012.6 hPa | 0 mm | 77.78 m/s, ° | 174 W/m² | - |
| 1777891026 | 17.22° C | 82% | 1012.4 hPa | 0 mm | 67.5 m/s, ° | 151 W/m² | - |
| 1777890726 | 16.67° C | 81% | 1012.6 hPa | 0 mm | 63.03 m/s, ° | 141 W/m² | - |
| 1777890425 | 16.67° C | 81% | 1012.6 hPa | 0 mm | 75.1 m/s, ° | 168 W/m² | - |
| 1777890125 | 16.11° C | 84% | 1012.7 hPa | 0 mm | 67.06 m/s, ° | 150 W/m² | - |
| 1777889825 | 15.56° C | 87% | 1012.8 hPa | 0 mm | 78.68 m/s, ° | 176 W/m² | - |
| 1777889525 | 15.56° C | 86% | 1012.8 hPa | 0 mm | 53.64 m/s, ° | 120 W/m² | - |
| 1777889225 | 15° C | 88% | 1012.8 hPa | 0 mm | 42.47 m/s, ° | 95 W/m² | - |
| 1777888925 | 15° C | 89% | 1013.2 hPa | 0 mm | 57.22 m/s, ° | 128 W/m² | - |
| 1777888625 | 14.44° C | 90% | 1013.1 hPa | 0 mm | 67.95 m/s, ° | 152 W/m² | - |
| 1777888325 | 13.89° C | 91% | 1013.1 hPa | 0 mm | 52.75 m/s, ° | 118 W/m² | - |
| 1777888025 | 13.89° C | 91% | 1013.3 hPa | 0 mm | 38.89 m/s, ° | 87 W/m² | - |
| 1777887725 | 13.89° C | 91% | 1013.4 hPa | 0 mm | 50.52 m/s, ° | 113 W/m² | - |
| 1777887425 | 13.89° C | 92% | 1013.6 hPa | 0 mm | 30.85 m/s, ° | 69 W/m² | - |
| 1777887125 | 13.89° C | 92% | 1013.5 hPa | 0 mm | 17.88 m/s, ° | 40 W/m² | - |
| 1777886825 | 13.33° C | 92% | 1013.5 hPa | 0 mm | 28.16 m/s, ° | 63 W/m² | - |
| 1777886525 | 13.33° C | 91% | 1013.6 hPa | 0 mm | 25.03 m/s, ° | 56 W/m² | - |
| 1777886225 | 13.33° C | 91% | 1013.4 hPa | 0 mm | 20.12 m/s, ° | 45 W/m² | - |
| 1777886225 | 13.33° C | 91% | 1013.4 hPa | 0 mm | 20.12 m/s, ° | 45 W/m² | - |
| 1777885925 | 13.33° C | 91% | 1013.3 hPa | 0 mm | 15.65 m/s, ° | 35 W/m² | - |
| 1777885625 | 13.33° C | 91% | 1013.4 hPa | 0 mm | 15.65 m/s, ° | 35 W/m² | - |
| 1777885324 | 12.78° C | 92% | 1013.3 hPa | 0 mm | 20.56 m/s, ° | 46 W/m² | - |
* Rain latest hour (hover to see other rain measurements)
** Current wind speed in m/s (hover to see current wind gust speed)